Terminal Aerodrome Forecast
Issued by NWS Twin Cities, MN

Home | Current Version | Previous Version | Text Only | Print | Product List | Glossary Off
Versions: 1 2 3 4 5 6 7 8 9 10 11 12 13 14 15 16 17 18 19 20 21 22 23 24 25 26 27 28 29 30 31

435
FTUS43 KMPX 232212 AAC
TAFMSP
TAF AMD
KMSP 232212Z 2322/2424 15013G19KT 6SM -RA BR OVC015
     FM240400 09004KT 3SM -SHRA BR OVC008
     FM240700 04005KT 2SM -RA BR OVC008
     FM241200 36010KT 4SM -SHRA BR OVC008
     FM241800 01012KT 4SM BR VCSH OVC012=

USA.gov is the U.S. government's official web portal to all federal, state and local government web resources and services.